createdAt,value
2023-01-29T00:02:57.395Z,10.77
2023-01-29T00:06:40.124Z,9.50
2023-01-29T00:10:22.447Z,10.93
2023-01-29T00:14:04.695Z,12.10
2023-01-29T00:17:46.673Z,10.13
2023-01-29T00:21:30.923Z,12.48
2023-01-29T00:25:12.881Z,11.20
2023-01-29T00:28:57.219Z,11.02
2023-01-29T00:32:40.814Z,10.93
2023-01-29T00:36:23.909Z,10.48
2023-01-29T00:40:06.428Z,12.45
2023-01-29T00:44:06.910Z,10.30
2023-01-29T00:47:48.920Z,12.82
2023-01-29T00:51:30.955Z,10.07
2023-01-29T00:55:13.009Z,9.25
2023-01-29T00:58:55.457Z,9.63
2023-01-29T01:02:56.126Z,9.73
2023-01-29T01:06:42.565Z,10.57
2023-01-29T01:10:26.424Z,9.15
2023-01-29T01:14:08.908Z,10.00
2023-01-29T01:17:58.874Z,10.50
2023-01-29T01:21:45.395Z,11.57
2023-01-29T01:25:28.041Z,10.23
2023-01-29T01:29:09.914Z,10.18
2023-01-29T01:32:51.898Z,12.25
2023-01-29T01:36:33.854Z,11.25
2023-01-29T01:40:19.316Z,10.20
2023-01-29T01:44:03.747Z,9.73
2023-01-29T01:47:49.164Z,11.68
2023-01-29T01:51:34.168Z,9.88
2023-01-29T01:55:19.911Z,10.32
2023-01-29T01:59:01.815Z,12.48
2023-01-29T02:03:04.997Z,10.35
2023-01-29T02:07:06.021Z,10.27
2023-01-29T02:10:49.727Z,11.13
2023-01-29T02:14:32.383Z,9.70
2023-01-29T02:18:19.251Z,10.95
2023-01-29T02:26:33.721Z,10.65
2023-01-29T02:30:24.719Z,8.93
2023-01-29T02:34:53.355Z,9.35
2023-01-29T02:38:38.313Z,9.88
2023-01-29T02:42:31.298Z,10.88
2023-01-29T02:46:45.639Z,10.30
2023-01-29T02:50:41.543Z,11.45
2023-01-29T02:54:37.928Z,9.00
2023-01-29T02:58:37.910Z,8.77
2023-01-29T03:02:37.387Z,9.23
2023-01-29T03:06:28.458Z,10.55
2023-01-29T03:10:37.214Z,9.52
2023-01-29T03:14:53.882Z,9.88
2023-01-29T03:18:45.964Z,8.50
2023-01-29T03:22:27.999Z,9.52
2023-01-29T03:26:29.346Z,7.68
2023-01-29T03:30:32.560Z,10.20
2023-01-29T03:34:24.258Z,11.45
2023-01-29T03:38:12.572Z,10.32
2023-01-29T03:42:05.474Z,9.02
2023-01-29T03:45:58.645Z,9.90
2023-01-29T03:49:56.575Z,9.05
2023-01-29T03:53:49.984Z,10.07
2023-01-29T03:57:37.191Z,8.93
2023-01-29T04:01:26.243Z,9.85
2023-01-29T04:05:16.310Z,9.35
2023-01-29T04:09:10.830Z,13.20
2023-01-29T04:13:13.369Z,10.27
2023-01-29T04:17:03.235Z,9.57
2023-01-29T04:20:46.035Z,12.18
2023-01-29T04:24:29.396Z,10.50
2023-01-29T04:28:18.965Z,8.65
2023-01-29T04:32:11.695Z,8.43
2023-01-29T04:36:00.216Z,8.07
2023-01-29T04:40:14.788Z,9.00
2023-01-29T04:44:16.289Z,10.13
2023-01-29T04:48:25.768Z,9.60
2023-01-29T04:52:12.462Z,9.85
2023-01-29T04:56:08.362Z,11.18
2023-01-29T05:00:05.528Z,8.45
2023-01-29T05:03:53.018Z,10.40
2023-01-29T05:07:37.693Z,11.23
2023-01-29T05:11:20.650Z,11.63
2023-01-29T05:15:05.859Z,9.00
2023-01-29T05:18:48.293Z,9.43
2023-01-29T05:22:30.855Z,9.15
2023-01-29T05:26:31.177Z,10.38
2023-01-29T05:30:13.219Z,9.27
2023-01-29T05:33:56.036Z,8.23
2023-01-29T05:37:38.135Z,10.20
2023-01-29T05:41:21.147Z,8.80
2023-01-29T05:45:03.307Z,9.35
2023-01-29T05:48:45.241Z,9.82
2023-01-29T05:52:27.148Z,8.45
2023-01-29T05:56:09.047Z,10.30
2023-01-29T05:59:50.968Z,8.63
2023-01-29T06:03:32.908Z,9.88
2023-01-29T06:07:14.783Z,9.20
2023-01-29T06:10:56.903Z,9.85
2023-01-29T06:14:38.842Z,9.38
2023-01-29T06:18:20.890Z,9.93
2023-01-29T06:22:02.780Z,11.15
2023-01-29T06:25:44.779Z,9.00
2023-01-29T06:29:26.721Z,8.70
2023-01-29T06:33:08.774Z,10.88
2023-01-29T06:36:50.694Z,10.00
2023-01-29T06:40:32.638Z,9.10
2023-01-29T06:44:14.720Z,9.80
2023-01-29T06:47:58.025Z,7.85
2023-01-29T06:51:40.758Z,8.73
2023-01-29T06:55:22.740Z,9.35
2023-01-29T06:59:04.738Z,8.60
2023-01-29T07:02:50.122Z,9.52
2023-01-29T07:06:32.760Z,8.88
2023-01-29T07:10:15.239Z,7.47
2023-01-29T07:13:57.368Z,8.65
2023-01-29T07:17:39.793Z,7.60
2023-01-29T07:21:21.768Z,9.02
2023-01-29T07:25:03.839Z,8.45
2023-01-29T07:28:45.789Z,7.82
2023-01-29T07:32:29.028Z,8.25
2023-01-29T07:36:12.618Z,8.50
2023-01-29T07:39:54.677Z,7.60
2023-01-29T07:43:36.669Z,7.20
2023-01-29T07:47:18.666Z,6.30
2023-01-29T07:51:01.017Z,6.47
2023-01-29T07:54:43.012Z,7.82
2023-01-29T07:58:25.066Z,6.72
2023-01-29T08:02:07.086Z,6.53
2023-01-29T08:05:49.075Z,6.10
2023-01-29T08:09:32.066Z,5.32
2023-01-29T08:13:14.062Z,4.90
2023-01-29T08:16:56.063Z,4.88
2023-01-29T08:20:38.171Z,4.50
2023-01-29T08:24:20.177Z,5.00
2023-01-29T08:28:02.210Z,5.70
2023-01-29T08:31:44.295Z,7.20
2023-01-29T08:35:27.203Z,4.82
2023-01-29T08:39:09.221Z,5.85
2023-01-29T08:42:51.199Z,6.13
2023-01-29T08:46:33.425Z,4.50
2023-01-29T08:50:17.126Z,5.18
2023-01-29T08:53:59.563Z,4.60
2023-01-29T08:57:41.511Z,4.22
2023-01-29T09:01:23.521Z,4.43
2023-01-29T09:05:06.048Z,5.57
2023-01-29T09:08:48.387Z,5.10
2023-01-29T09:12:30.289Z,5.20
2023-01-29T09:16:12.304Z,4.88
2023-01-29T09:19:54.310Z,3.40
2023-01-29T09:23:36.362Z,3.25
2023-01-29T09:27:18.723Z,3.55
2023-01-29T09:31:04.125Z,3.20
2023-01-29T09:34:46.136Z,3.55
2023-01-29T09:38:28.098Z,2.97
2023-01-29T09:42:17.197Z,4.95
2023-01-29T09:46:06.176Z,3.20
2023-01-29T09:49:53.682Z,2.97
2023-01-29T09:54:05.383Z,2.42
2023-01-29T09:58:30.854Z,2.25
2023-01-29T10:02:30.731Z,2.80
2023-01-29T10:06:43.649Z,2.08
2023-01-29T10:10:49.390Z,2.67
2023-01-29T10:14:43.175Z,2.90
2023-01-29T10:18:45.341Z,2.85
2023-01-29T10:22:48.674Z,1.92
2023-01-29T10:26:33.511Z,2.08
2023-01-29T10:30:46.620Z,2.30
2023-01-29T10:34:35.666Z,2.13
2023-01-29T10:38:42.883Z,1.60
2023-01-29T10:42:38.559Z,1.65
2023-01-29T10:46:46.378Z,1.90
2023-01-29T10:50:32.869Z,1.80
2023-01-29T10:54:23.942Z,1.52
2023-01-29T10:58:05.867Z,1.55
2023-01-29T11:01:47.865Z,2.28
2023-01-29T11:05:44.639Z,2.60
2023-01-29T11:09:39.400Z,2.58
2023-01-29T11:13:25.525Z,2.53
2023-01-29T11:17:19.172Z,3.20
2023-01-29T11:21:04.766Z,1.75
2023-01-29T11:24:47.823Z,1.90
2023-01-29T11:28:56.066Z,1.90
2023-01-29T11:32:38.081Z,2.10
2023-01-29T11:36:28.559Z,2.20
2023-01-29T11:40:20.767Z,1.90
2023-01-29T11:44:02.929Z,2.30
2023-01-29T11:47:50.534Z,1.75
2023-01-29T11:51:33.043Z,1.60
2023-01-29T11:55:29.618Z,2.08
2023-01-29T11:59:29.582Z,1.70
2023-01-29T12:03:39.703Z,1.50
2023-01-29T12:07:22.428Z,1.35
2023-01-29T12:11:08.575Z,1.17
2023-01-29T12:15:14.896Z,1.60
2023-01-29T12:19:17.642Z,1.40
2023-01-29T12:23:38.833Z,1.20
2023-01-29T12:27:46.676Z,1.23
2023-01-29T12:32:09.552Z,0.98
2023-01-29T12:36:01.634Z,1.13
2023-01-29T12:39:43.654Z,2.45
2023-01-29T12:43:37.577Z,1.67
2023-01-29T12:47:24.308Z,1.98
2023-01-29T12:51:24.033Z,1.33
2023-01-29T12:55:19.129Z,2.20
2023-01-29T12:59:05.032Z,1.08
2023-01-29T13:02:58.996Z,1.00
2023-01-29T13:06:46.670Z,0.80
2023-01-29T13:10:50.701Z,0.52
2023-01-29T13:14:57.558Z,0.38
2023-01-29T13:18:51.531Z,0.63
2023-01-29T13:22:38.434Z,0.45
2023-01-29T13:26:22.142Z,0.50
2023-01-29T13:30:04.698Z,0.45
2023-01-29T13:33:59.587Z,0.73
2023-01-29T13:37:54.144Z,0.90
2023-01-29T13:41:40.046Z,0.68
2023-01-29T13:45:30.762Z,1.00
2023-01-29T13:49:26.613Z,0.30
2023-01-29T13:53:19.875Z,0.73
2023-01-29T13:57:02.109Z,0.93
2023-01-29T14:00:45.251Z,0.35
2023-01-29T14:04:30.789Z,0.68
2023-01-29T14:08:12.686Z,1.10
2023-01-29T14:11:54.911Z,0.20
2023-01-29T14:15:37.712Z,1.05
2023-01-29T14:19:20.107Z,0.50
2023-01-29T14:23:04.241Z,0.73
2023-01-29T14:26:48.776Z,0.55
2023-01-29T14:30:34.379Z,0.50
2023-01-29T14:34:42.290Z,0.40
2023-01-29T14:38:28.433Z,0.55
2023-01-29T14:42:44.538Z,0.65
2023-01-29T14:46:35.596Z,0.32
2023-01-29T14:50:30.174Z,1.08
2023-01-29T14:54:26.866Z,1.40
2023-01-29T14:58:25.240Z,1.10
2023-01-29T15:02:20.285Z,0.93
2023-01-29T15:06:04.965Z,1.25
2023-01-29T15:09:55.631Z,0.40
2023-01-29T15:14:08.760Z,0.85
2023-01-29T15:17:59.881Z,0.95
2023-01-29T15:22:02.463Z,0.82
2023-01-29T15:25:49.901Z,0.57
2023-01-29T15:29:32.205Z,0.82
2023-01-29T15:33:15.088Z,1.08
2023-01-29T15:36:57.195Z,0.68
2023-01-29T15:40:39.177Z,1.48
2023-01-29T15:44:23.096Z,0.85
2023-01-29T15:48:15.160Z,2.55
2023-01-29T15:51:59.462Z,1.00
2023-01-29T15:55:41.843Z,1.30
2023-01-29T15:59:39.716Z,1.58
2023-01-29T16:03:24.661Z,1.75
2023-01-29T16:07:06.662Z,1.83
2023-01-29T16:10:52.807Z,1.30
2023-01-29T16:14:35.119Z,1.65
2023-01-29T16:18:24.237Z,1.60
2023-01-29T16:22:06.931Z,1.70
2023-01-29T16:25:49.728Z,1.08
2023-01-29T16:29:34.037Z,1.58
2023-01-29T16:33:17.417Z,3.85
2023-01-29T16:37:02.502Z,1.98
2023-01-29T16:41:06.346Z,2.97
2023-01-29T16:44:55.714Z,2.58
2023-01-29T16:48:37.599Z,2.70
2023-01-29T16:52:34.116Z,2.35
2023-01-29T16:56:16.040Z,1.90
2023-01-29T17:00:01.787Z,4.10
2023-01-29T17:03:44.120Z,2.70
2023-01-29T17:07:26.940Z,3.05
2023-01-29T17:11:10.096Z,4.28
2023-01-29T17:14:58.764Z,1.83
2023-01-29T17:18:40.686Z,2.83
2023-01-29T17:22:22.595Z,1.10
2023-01-29T17:26:07.010Z,3.45
2023-01-29T17:29:49.699Z,4.20
2023-01-29T17:33:32.212Z,2.60
2023-01-29T17:37:16.285Z,2.28
2023-01-29T17:41:03.617Z,1.85
2023-01-29T17:44:45.637Z,3.22
2023-01-29T17:48:29.310Z,2.38
2023-01-29T17:52:11.555Z,2.35
2023-01-29T17:55:53.649Z,4.45
2023-01-29T17:59:35.944Z,4.47
2023-01-29T18:03:18.014Z,2.40
2023-01-29T18:07:00.063Z,3.00
2023-01-29T18:10:42.048Z,2.90
2023-01-29T18:14:24.016Z,2.65
2023-01-29T18:18:06.839Z,4.07
2023-01-29T18:21:50.123Z,3.33
2023-01-29T18:25:32.990Z,4.20
2023-01-29T18:29:15.063Z,3.72
2023-01-29T18:32:57.715Z,3.40
2023-01-29T18:36:39.673Z,3.25
2023-01-29T18:40:21.570Z,4.70
2023-01-29T18:44:03.569Z,5.50
2023-01-29T18:47:46.080Z,4.75
2023-01-29T18:51:28.094Z,3.78
2023-01-29T18:55:10.301Z,3.00
2023-01-29T18:58:55.726Z,1.98
2023-01-29T19:02:37.915Z,3.33
2023-01-29T19:06:20.038Z,4.20
2023-01-29T19:10:02.585Z,3.70
2023-01-29T19:13:44.749Z,7.00
2023-01-29T19:17:27.271Z,3.25
2023-01-29T19:21:11.868Z,2.80
2023-01-29T19:24:53.759Z,2.08
2023-01-29T19:28:36.246Z,2.75
2023-01-29T19:32:18.916Z,3.85
2023-01-29T19:36:01.578Z,4.00
2023-01-29T19:39:43.574Z,5.10
2023-01-29T19:43:30.737Z,3.80
2023-01-29T19:47:12.811Z,2.53
2023-01-29T19:50:56.542Z,2.97
2023-01-29T19:54:38.439Z,2.85
2023-01-29T19:58:20.348Z,2.45
2023-01-29T20:02:02.363Z,2.72
2023-01-29T20:05:44.319Z,3.33
2023-01-29T20:09:26.308Z,2.42
2023-01-29T20:13:08.228Z,3.53
2023-01-29T20:16:50.238Z,6.80
2023-01-29T20:20:32.885Z,5.82
2023-01-29T20:24:14.982Z,3.60
2023-01-29T20:27:56.992Z,2.95
2023-01-29T20:31:39.042Z,3.10
2023-01-29T20:35:21.032Z,3.05
2023-01-29T20:39:02.971Z,2.95
2023-01-29T20:42:45.177Z,3.60
2023-01-29T20:46:27.382Z,3.53
2023-01-29T20:50:14.999Z,2.88
2023-01-29T20:53:57.117Z,3.38
2023-01-29T20:57:39.482Z,1.88
2023-01-29T21:01:21.964Z,1.67
2023-01-29T21:05:04.232Z,2.17
2023-01-29T21:08:46.134Z,4.97
2023-01-29T21:12:28.058Z,3.20
2023-01-29T21:16:11.325Z,4.32
2023-01-29T21:19:53.351Z,2.20
2023-01-29T21:23:35.328Z,3.40
2023-01-29T21:27:17.451Z,1.80
2023-01-29T21:31:11.321Z,3.08
2023-01-29T21:34:53.340Z,4.65
2023-01-29T21:38:35.324Z,2.35
2023-01-29T21:42:35.594Z,2.53
2023-01-29T21:46:17.543Z,2.08
2023-01-29T21:49:59.524Z,1.80
2023-01-29T21:53:41.385Z,4.10
2023-01-29T21:57:26.673Z,3.30
2023-01-29T22:01:11.399Z,3.45
2023-01-29T22:05:18.943Z,3.63
2023-01-29T22:09:01.836Z,4.25
2023-01-29T22:12:44.785Z,6.40
2023-01-29T22:16:26.824Z,4.70
2023-01-29T22:20:13.629Z,3.28
2023-01-29T22:27:37.707Z,3.88
2023-01-29T22:31:19.684Z,3.45
2023-01-29T22:35:01.717Z,6.15
2023-01-29T22:38:43.751Z,6.45
2023-01-29T22:42:25.717Z,4.13
2023-01-29T22:46:08.971Z,8.10
2023-01-29T22:49:52.451Z,5.13
2023-01-29T22:53:34.408Z,4.82
2023-01-29T22:57:16.532Z,4.13
2023-01-29T23:00:58.507Z,5.40
2023-01-29T23:04:40.446Z,5.80
2023-01-29T23:08:22.417Z,4.80
2023-01-29T23:12:04.691Z,4.68
2023-01-29T23:15:46.610Z,3.28
2023-01-29T23:19:30.160Z,3.55
2023-01-29T23:23:12.097Z,2.58
2023-01-29T23:27:12.561Z,4.70
2023-01-29T23:30:54.518Z,4.72
2023-01-29T23:34:36.952Z,4.10
2023-01-29T23:38:18.845Z,4.75
2023-01-29T23:42:01.154Z,3.92
2023-01-29T23:45:43.045Z,3.75
2023-01-29T23:49:25.194Z,2.65
2023-01-29T23:53:07.247Z,4.20
2023-01-29T23:56:49.386Z,1.83
